sensor_id;sensor_type;location;lat;lon;timestamp;temperature;humidity
34873;DHT22;21084;51.098;14.506;2022-07-09T00:00:44;13.30;99.90
34873;DHT22;21084;51.098;14.506;2022-07-09T00:02:46;13.30;99.90
34873;DHT22;21084;51.098;14.506;2022-07-09T00:04:48;13.30;99.90
34873;DHT22;21084;51.098;14.506;2022-07-09T00:06:50;13.30;99.90
34873;DHT22;21084;51.098;14.506;2022-07-09T00:08:52;13.20;99.90
34873;DHT22;21084;51.098;14.506;2022-07-09T00:10:53;13.10;99.90
34873;DHT22;21084;51.098;14.506;2022-07-09T00:12:55;13.10;99.90
34873;DHT22;21084;51.098;14.506;2022-07-09T00:14:59;13.10;99.90
34873;DHT22;21084;51.098;14.506;2022-07-09T00:17:01;13.20;99.90
34873;DHT22;21084;51.098;14.506;2022-07-09T00:19:03;13.20;99.90
34873;DHT22;21084;51.098;14.506;2022-07-09T00:21:05;13.10;99.90
34873;DHT22;21084;51.098;14.506;2022-07-09T00:23:07;13.20;99.90
34873;DHT22;21084;51.098;14.506;2022-07-09T00:25:09;13.20;99.90
34873;DHT22;21084;51.098;14.506;2022-07-09T00:27:11;13.10;99.90
34873;DHT22;21084;51.098;14.506;2022-07-09T00:29:13;13.00;99.90
34873;DHT22;21084;51.098;14.506;2022-07-09T00:31:16;12.90;99.90
34873;DHT22;21084;51.098;14.506;2022-07-09T00:33:18;12.90;99.90
34873;DHT22;21084;51.098;14.506;2022-07-09T00:35:20;12.80;99.90
34873;DHT22;21084;51.098;14.506;2022-07-09T00:37:22;12.70;99.90
34873;DHT22;21084;51.098;14.506;2022-07-09T00:39:23;12.60;99.90
34873;DHT22;21084;51.098;14.506;2022-07-09T00:41:25;12.50;99.90
34873;DHT22;21084;51.098;14.506;2022-07-09T00:43:27;12.50;99.90
34873;DHT22;21084;51.098;14.506;2022-07-09T00:45:29;12.40;99.90
34873;DHT22;21084;51.098;14.506;2022-07-09T00:47:32;12.40;99.90
34873;DHT22;21084;51.098;14.506;2022-07-09T00:49:37;12.40;99.90
34873;DHT22;21084;51.098;14.506;2022-07-09T00:51:39;12.30;99.90
34873;DHT22;21084;51.098;14.506;2022-07-09T00:53:42;12.30;99.90
34873;DHT22;21084;51.098;14.506;2022-07-09T00:55:46;12.20;99.90
34873;DHT22;21084;51.098;14.506;2022-07-09T00:57:49;12.20;99.90
34873;DHT22;21084;51.098;14.506;2022-07-09T00:59:51;12.20;99.90
34873;DHT22;21084;51.098;14.506;2022-07-09T01:01:54;12.20;99.90
34873;DHT22;21084;51.098;14.506;2022-07-09T01:03:58;12.20;99.90
34873;DHT22;21084;51.098;14.506;2022-07-09T01:05:59;12.20;99.90
34873;DHT22;21084;51.098;14.506;2022-07-09T01:08:03;12.20;99.90
34873;DHT22;21084;51.098;14.506;2022-07-09T01:10:05;12.20;99.90
34873;DHT22;21084;51.098;14.506;2022-07-09T01:12:08;12.10;99.90
34873;DHT22;21084;51.098;14.506;2022-07-09T01:14:10;12.30;99.90
34873;DHT22;21084;51.098;14.506;2022-07-09T01:16:12;12.20;99.90
34873;DHT22;21084;51.098;14.506;2022-07-09T01:18:14;12.10;99.90
34873;DHT22;21084;51.098;14.506;2022-07-09T01:20:21;12.10;99.90
34873;DHT22;21084;51.098;14.506;2022-07-09T01:22:23;12.20;99.90
34873;DHT22;21084;51.098;14.506;2022-07-09T01:24:27;12.20;99.90
34873;DHT22;21084;51.098;14.506;2022-07-09T01:26:29;12.30;99.90
34873;DHT22;21084;51.098;14.506;2022-07-09T01:28:30;12.40;99.90
34873;DHT22;21084;51.098;14.506;2022-07-09T01:30:34;12.50;99.90
34873;DHT22;21084;51.098;14.506;2022-07-09T01:32:36;12.60;99.90
34873;DHT22;21084;51.098;14.506;2022-07-09T01:34:38;12.70;99.90
34873;DHT22;21084;51.098;14.506;2022-07-09T01:36:41;12.70;99.90
34873;DHT22;21084;51.098;14.506;2022-07-09T01:38:43;12.80;99.90
34873;DHT22;21084;51.098;14.506;2022-07-09T01:40:45;12.80;99.90
34873;DHT22;21084;51.098;14.506;2022-07-09T01:42:47;12.80;99.90
34873;DHT22;21084;51.098;14.506;2022-07-09T01:44:49;12.90;99.90
34873;DHT22;21084;51.098;14.506;2022-07-09T01:46:51;12.90;99.90
34873;DHT22;21084;51.098;14.506;2022-07-09T01:48:53;12.90;99.90
34873;DHT22;21084;51.098;14.506;2022-07-09T01:50:55;12.90;99.90
34873;DHT22;21084;51.098;14.506;2022-07-09T01:52:58;12.90;99.90
34873;DHT22;21084;51.098;14.506;2022-07-09T01:55:01;12.90;99.90
34873;DHT22;21084;51.098;14.506;2022-07-09T01:57:03;12.90;99.90
34873;DHT22;21084;51.098;14.506;2022-07-09T01:59:05;12.80;99.90
34873;DHT22;21084;51.098;14.506;2022-07-09T02:01:07;12.80;99.90
34873;DHT22;21084;51.098;14.506;2022-07-09T02:03:09;12.80;99.90
34873;DHT22;21084;51.098;14.506;2022-07-09T02:05:11;12.80;99.90
34873;DHT22;21084;51.098;14.506;2022-07-09T02:07:13;12.80;99.90
34873;DHT22;21084;51.098;14.506;2022-07-09T02:09:16;12.70;99.90
34873;DHT22;21084;51.098;14.506;2022-07-09T02:11:18;12.70;99.90
34873;DHT22;21084;51.098;14.506;2022-07-09T02:13:20;12.70;99.90
34873;DHT22;21084;51.098;14.506;2022-07-09T02:15:22;12.70;99.90
34873;DHT22;21084;51.098;14.506;2022-07-09T02:17:23;12.70;99.90
34873;DHT22;21084;51.098;14.506;2022-07-09T02:19:25;12.80;99.90
34873;DHT22;21084;51.098;14.506;2022-07-09T02:21:27;12.80;99.90
34873;DHT22;21084;51.098;14.506;2022-07-09T02:23:29;12.80;99.90
34873;DHT22;21084;51.098;14.506;2022-07-09T02:25:32;12.70;99.90
34873;DHT22;21084;51.098;14.506;2022-07-09T02:27:34;12.80;99.90
34873;DHT22;21084;51.098;14.506;2022-07-09T02:29:36;12.80;99.90
34873;DHT22;21084;51.098;14.506;2022-07-09T02:31:38;12.80;99.90
34873;DHT22;21084;51.098;14.506;2022-07-09T02:33:40;12.80;99.90
34873;DHT22;21084;51.098;14.506;2022-07-09T02:35:42;12.80;99.90
34873;DHT22;21084;51.098;14.506;2022-07-09T02:37:44;12.80;99.90
34873;DHT22;21084;51.098;14.506;2022-07-09T02:39:46;12.80;99.90
34873;DHT22;21084;51.098;14.506;2022-07-09T02:41:50;12.80;99.90
34873;DHT22;21084;51.098;14.506;2022-07-09T02:43:51;12.80;99.90
34873;DHT22;21084;51.098;14.506;2022-07-09T02:45:53;12.80;99.90
34873;DHT22;21084;51.098;14.506;2022-07-09T02:47:55;12.90;99.90
34873;DHT22;21084;51.098;14.506;2022-07-09T02:49:57;12.90;99.90
34873;DHT22;21084;51.098;14.506;2022-07-09T02:51:59;13.00;99.90
34873;DHT22;21084;51.098;14.506;2022-07-09T02:54:01;13.00;99.90
34873;DHT22;21084;51.098;14.506;2022-07-09T02:56:03;13.00;99.90
34873;DHT22;21084;51.098;14.506;2022-07-09T02:58:06;13.00;99.90
34873;DHT22;21084;51.098;14.506;2022-07-09T03:00:09;13.00;99.90
34873;DHT22;21084;51.098;14.506;2022-07-09T03:02:11;13.00;99.90
34873;DHT22;21084;51.098;14.506;2022-07-09T03:04:13;13.00;99.90
34873;DHT22;21084;51.098;14.506;2022-07-09T03:06:15;12.90;99.90
34873;DHT22;21084;51.098;14.506;2022-07-09T03:08:17;12.90;99.90
34873;DHT22;21084;51.098;14.506;2022-07-09T03:10:19;12.90;99.90
34873;DHT22;21084;51.098;14.506;2022-07-09T03:12:20;12.90;99.90
34873;DHT22;21084;51.098;14.506;2022-07-09T03:14:24;12.90;99.90
34873;DHT22;21084;51.098;14.506;2022-07-09T03:16:26;12.90;99.90
34873;DHT22;21084;51.098;14.506;2022-07-09T03:18:28;12.80;99.90
34873;DHT22;21084;51.098;14.506;2022-07-09T03:20:30;12.80;99.90
34873;DHT22;21084;51.098;14.506;2022-07-09T03:22:31;12.90;99.90
34873;DHT22;21084;51.098;14.506;2022-07-09T03:24:33;12.90;99.90
34873;DHT22;21084;51.098;14.506;2022-07-09T03:26:36;12.90;99.90
34873;DHT22;21084;51.098;14.506;2022-07-09T03:28:38;12.90;99.90
34873;DHT22;21084;51.098;14.506;2022-07-09T03:30:41;12.90;99.90
34873;DHT22;21084;51.098;14.506;2022-07-09T03:32:43;12.90;99.90
34873;DHT22;21084;51.098;14.506;2022-07-09T03:34:45;13.00;99.90
34873;DHT22;21084;51.098;14.506;2022-07-09T03:36:47;13.00;99.90
34873;DHT22;21084;51.098;14.506;2022-07-09T03:38:49;13.10;99.90
34873;DHT22;21084;51.098;14.506;2022-07-09T03:40:51;13.10;99.90
34873;DHT22;21084;51.098;14.506;2022-07-09T03:42:53;13.10;99.90
34873;DHT22;21084;51.098;14.506;2022-07-09T03:44:55;13.20;99.90
34873;DHT22;21084;51.098;14.506;2022-07-09T03:46:59;13.20;99.90
34873;DHT22;21084;51.098;14.506;2022-07-09T03:49:01;13.30;99.90
34873;DHT22;21084;51.098;14.506;2022-07-09T03:51:03;13.30;99.90
34873;DHT22;21084;51.098;14.506;2022-07-09T03:53:05;13.30;99.90
34873;DHT22;21084;51.098;14.506;2022-07-09T03:55:07;13.20;99.90
34873;DHT22;21084;51.098;14.506;2022-07-09T03:57:10;13.20;99.90
34873;DHT22;21084;51.098;14.506;2022-07-09T03:59:12;13.30;99.90
34873;DHT22;21084;51.098;14.506;2022-07-09T04:01:14;13.30;99.90
34873;DHT22;21084;51.098;14.506;2022-07-09T04:03:17;13.40;99.90
34873;DHT22;21084;51.098;14.506;2022-07-09T04:05:19;13.40;99.90
34873;DHT22;21084;51.098;14.506;2022-07-09T04:07:21;13.60;99.90
34873;DHT22;21084;51.098;14.506;2022-07-09T04:09:23;13.60;99.90
34873;DHT22;21084;51.098;14.506;2022-07-09T04:11:24;13.70;99.90
34873;DHT22;21084;51.098;14.506;2022-07-09T04:13:26;13.90;99.90
34873;DHT22;21084;51.098;14.506;2022-07-09T04:15:28;13.90;99.90
34873;DHT22;21084;51.098;14.506;2022-07-09T04:17:30;13.80;99.90
34873;DHT22;21084;51.098;14.506;2022-07-09T04:19:33;13.80;99.90
34873;DHT22;21084;51.098;14.506;2022-07-09T04:21:35;13.80;99.90
34873;DHT22;21084;51.098;14.506;2022-07-09T04:23:37;13.80;99.90
34873;DHT22;21084;51.098;14.506;2022-07-09T04:25:39;13.80;99.90
34873;DHT22;21084;51.098;14.506;2022-07-09T04:27:41;13.80;99.90
34873;DHT22;21084;51.098;14.506;2022-07-09T04:29:43;13.80;99.90
34873;DHT22;21084;51.098;14.506;2022-07-09T04:31:45;13.80;99.90
34873;DHT22;21084;51.098;14.506;2022-07-09T04:33:47;13.80;99.90
34873;DHT22;21084;51.098;14.506;2022-07-09T04:35:50;13.80;99.90
34873;DHT22;21084;51.098;14.506;2022-07-09T04:37:52;13.90;99.90
34873;DHT22;21084;51.098;14.506;2022-07-09T04:39:54;14.10;99.90
34873;DHT22;21084;51.098;14.506;2022-07-09T04:41:55;14.00;99.90
34873;DHT22;21084;51.098;14.506;2022-07-09T04:43:57;14.10;99.90
34873;DHT22;21084;51.098;14.506;2022-07-09T04:45:59;14.20;99.90
34873;DHT22;21084;51.098;14.506;2022-07-09T04:48:02;14.20;99.90
34873;DHT22;21084;51.098;14.506;2022-07-09T04:50:04;14.20;99.90
34873;DHT22;21084;51.098;14.506;2022-07-09T04:52:08;14.20;99.90
34873;DHT22;21084;51.098;14.506;2022-07-09T04:54:09;14.20;99.90
34873;DHT22;21084;51.098;14.506;2022-07-09T04:56:11;14.20;99.90
34873;DHT22;21084;51.098;14.506;2022-07-09T04:58:13;14.20;99.90
34873;DHT22;21084;51.098;14.506;2022-07-09T05:00:15;14.30;99.90
34873;DHT22;21084;51.098;14.506;2022-07-09T05:02:17;14.40;99.90
34873;DHT22;21084;51.098;14.506;2022-07-09T05:04:19;14.50;99.90
34873;DHT22;21084;51.098;14.506;2022-07-09T05:06:21;14.60;99.90
34873;DHT22;21084;51.098;14.506;2022-07-09T05:08:24;14.70;99.90
34873;DHT22;21084;51.098;14.506;2022-07-09T05:10:26;14.70;99.90
34873;DHT22;21084;51.098;14.506;2022-07-09T05:12:29;14.70;99.90
34873;DHT22;21084;51.098;14.506;2022-07-09T05:14:31;14.80;99.90
34873;DHT22;21084;51.098;14.506;2022-07-09T05:16:33;14.90;99.90
34873;DHT22;21084;51.098;14.506;2022-07-09T05:18:35;15.00;99.90
34873;DHT22;21084;51.098;14.506;2022-07-09T05:20:38;15.20;99.90
34873;DHT22;21084;51.098;14.506;2022-07-09T05:22:40;15.40;99.90
34873;DHT22;21084;51.098;14.506;2022-07-09T05:24:43;15.50;99.90
34873;DHT22;21084;51.098;14.506;2022-07-09T05:26:45;15.60;99.90
34873;DHT22;21084;51.098;14.506;2022-07-09T05:28:47;15.60;99.90
34873;DHT22;21084;51.098;14.506;2022-07-09T05:30:49;15.50;99.90
34873;DHT22;21084;51.098;14.506;2022-07-09T05:33:10;15.60;99.90
34873;DHT22;21084;51.098;14.506;2022-07-09T05:35:12;15.60;99.90
34873;DHT22;21084;51.098;14.506;2022-07-09T05:37:14;15.80;99.90
34873;DHT22;21084;51.098;14.506;2022-07-09T05:39:16;15.80;99.90
34873;DHT22;21084;51.098;14.506;2022-07-09T05:41:19;16.00;99.90
34873;DHT22;21084;51.098;14.506;2022-07-09T05:43:21;16.10;99.90
34873;DHT22;21084;51.098;14.506;2022-07-09T05:45:23;16.00;99.90
34873;DHT22;21084;51.098;14.506;2022-07-09T05:47:25;16.10;99.90
34873;DHT22;21084;51.098;14.506;2022-07-09T05:49:27;16.20;99.90
34873;DHT22;21084;51.098;14.506;2022-07-09T05:51:29;16.10;99.90
34873;DHT22;21084;51.098;14.506;2022-07-09T05:53:31;16.10;99.90
34873;DHT22;21084;51.098;14.506;2022-07-09T05:55:33;16.00;99.90
34873;DHT22;21084;51.098;14.506;2022-07-09T05:57:36;16.00;99.90
34873;DHT22;21084;51.098;14.506;2022-07-09T05:59:38;16.00;99.90
34873;DHT22;21084;51.098;14.506;2022-07-09T06:01:40;16.10;99.90
34873;DHT22;21084;51.098;14.506;2022-07-09T06:03:42;16.20;99.90
34873;DHT22;21084;51.098;14.506;2022-07-09T06:05:44;16.30;99.90
34873;DHT22;21084;51.098;14.506;2022-07-09T06:07:46;16.00;99.90
34873;DHT22;21084;51.098;14.506;2022-07-09T06:09:48;16.10;99.90
34873;DHT22;21084;51.098;14.506;2022-07-09T06:11:50;16.10;99.90
34873;DHT22;21084;51.098;14.506;2022-07-09T06:13:53;16.10;99.90
34873;DHT22;21084;51.098;14.506;2022-07-09T06:15:55;16.30;99.90
34873;DHT22;21084;51.098;14.506;2022-07-09T06:17:57;16.00;99.90
34873;DHT22;21084;51.098;14.506;2022-07-09T06:19:59;16.20;99.90
34873;DHT22;21084;51.098;14.506;2022-07-09T06:22:01;16.40;99.90
34873;DHT22;21084;51.098;14.506;2022-07-09T06:24:03;16.30;99.90
34873;DHT22;21084;51.098;14.506;2022-07-09T06:26:05;16.30;99.90
34873;DHT22;21084;51.098;14.506;2022-07-09T06:28:07;17.20;99.90
34873;DHT22;21084;51.098;14.506;2022-07-09T06:30:10;17.40;99.90
34873;DHT22;21084;51.098;14.506;2022-07-09T06:32:12;17.30;99.90
34873;DHT22;21084;51.098;14.506;2022-07-09T06:34:14;17.30;99.90
34873;DHT22;21084;51.098;14.506;2022-07-09T06:36:16;17.40;99.90
34873;DHT22;21084;51.098;14.506;2022-07-09T06:38:19;17.30;99.90
34873;DHT22;21084;51.098;14.506;2022-07-09T06:40:20;17.10;99.90
34873;DHT22;21084;51.098;14.506;2022-07-09T06:42:22;17.20;99.90
34873;DHT22;21084;51.098;14.506;2022-07-09T06:44:24;17.20;99.90
34873;DHT22;21084;51.098;14.506;2022-07-09T06:46:28;17.20;99.90
34873;DHT22;21084;51.098;14.506;2022-07-09T06:48:30;17.30;99.90
34873;DHT22;21084;51.098;14.506;2022-07-09T06:50:32;17.60;99.90
34873;DHT22;21084;51.098;14.506;2022-07-09T06:52:34;17.60;99.90
34873;DHT22;21084;51.098;14.506;2022-07-09T06:54:36;17.50;99.90
34873;DHT22;21084;51.098;14.506;2022-07-09T06:56:38;17.60;99.90
34873;DHT22;21084;51.098;14.506;2022-07-09T06:58:40;17.30;99.90
34873;DHT22;21084;51.098;14.506;2022-07-09T07:00:42;17.20;99.90
34873;DHT22;21084;51.098;14.506;2022-07-09T07:02:45;17.60;99.90
34873;DHT22;21084;51.098;14.506;2022-07-09T07:04:47;18.00;99.90
34873;DHT22;21084;51.098;14.506;2022-07-09T07:06:49;18.10;99.90
34873;DHT22;21084;51.098;14.506;2022-07-09T07:08:51;18.20;99.90
34873;DHT22;21084;51.098;14.506;2022-07-09T07:10:52;17.90;99.90
34873;DHT22;21084;51.098;14.506;2022-07-09T07:12:54;17.90;99.90
34873;DHT22;21084;51.098;14.506;2022-07-09T07:14:56;17.50;99.90
34873;DHT22;21084;51.098;14.506;2022-07-09T07:16:58;17.50;99.90
34873;DHT22;21084;51.098;14.506;2022-07-09T07:19:01;17.70;99.90
34873;DHT22;21084;51.098;14.506;2022-07-09T07:21:04;17.80;99.90
34873;DHT22;21084;51.098;14.506;2022-07-09T07:23:05;17.60;99.90
34873;DHT22;21084;51.098;14.506;2022-07-09T07:25:08;17.60;99.90
34873;DHT22;21084;51.098;14.506;2022-07-09T07:27:10;17.60;99.90
34873;DHT22;21084;51.098;14.506;2022-07-09T07:29:12;17.50;99.90
34873;DHT22;21084;51.098;14.506;2022-07-09T07:31:14;17.40;99.90
34873;DHT22;21084;51.098;14.506;2022-07-09T07:33:16;17.80;99.90
34873;DHT22;21084;51.098;14.506;2022-07-09T07:35:19;18.10;99.90
34873;DHT22;21084;51.098;14.506;2022-07-09T07:37:21;17.60;99.90
34873;DHT22;21084;51.098;14.506;2022-07-09T07:39:23;17.80;99.90
34873;DHT22;21084;51.098;14.506;2022-07-09T07:41:25;17.80;99.90
34873;DHT22;21084;51.098;14.506;2022-07-09T07:43:27;17.50;99.90
34873;DHT22;21084;51.098;14.506;2022-07-09T07:45:29;17.40;99.90
34873;DHT22;21084;51.098;14.506;2022-07-09T07:47:31;17.40;99.90
34873;DHT22;21084;51.098;14.506;2022-07-09T07:49:33;17.50;99.90
34873;DHT22;21084;51.098;14.506;2022-07-09T07:51:36;17.50;99.90
34873;DHT22;21084;51.098;14.506;2022-07-09T07:53:38;17.40;99.90
34873;DHT22;21084;51.098;14.506;2022-07-09T07:55:40;17.30;99.90
34873;DHT22;21084;51.098;14.506;2022-07-09T07:57:42;17.30;99.90
34873;DHT22;21084;51.098;14.506;2022-07-09T07:59:44;17.30;99.90
34873;DHT22;21084;51.098;14.506;2022-07-09T08:01:46;17.10;99.90
34873;DHT22;21084;51.098;14.506;2022-07-09T08:03:48;17.00;99.90
34873;DHT22;21084;51.098;14.506;2022-07-09T08:05:50;17.20;99.90
34873;DHT22;21084;51.098;14.506;2022-07-09T08:07:53;17.10;99.90
34873;DHT22;21084;51.098;14.506;2022-07-09T08:09:55;16.90;99.90
34873;DHT22;21084;51.098;14.506;2022-07-09T08:11:57;17.00;99.90
34873;DHT22;21084;51.098;14.506;2022-07-09T08:13:59;17.20;99.90
34873;DHT22;21084;51.098;14.506;2022-07-09T08:16:01;17.40;99.90
34873;DHT22;21084;51.098;14.506;2022-07-09T08:18:03;17.50;99.90
34873;DHT22;21084;51.098;14.506;2022-07-09T08:20:05;17.60;99.90
34873;DHT22;21084;51.098;14.506;2022-07-09T08:22:07;17.60;99.90
34873;DHT22;21084;51.098;14.506;2022-07-09T08:24:11;17.80;99.90
34873;DHT22;21084;51.098;14.506;2022-07-09T08:26:13;17.60;99.90
34873;DHT22;21084;51.098;14.506;2022-07-09T08:28:15;17.50;99.90
34873;DHT22;21084;51.098;14.506;2022-07-09T08:30:17;17.60;99.90
34873;DHT22;21084;51.098;14.506;2022-07-09T08:32:19;17.90;99.90
34873;DHT22;21084;51.098;14.506;2022-07-09T08:34:21;17.80;99.90
34873;DHT22;21084;51.098;14.506;2022-07-09T08:36:22;17.70;99.90
34873;DHT22;21084;51.098;14.506;2022-07-09T08:38:24;18.00;99.90
34873;DHT22;21084;51.098;14.506;2022-07-09T08:40:28;18.10;99.90
34873;DHT22;21084;51.098;14.506;2022-07-09T08:42:31;17.80;99.90
34873;DHT22;21084;51.098;14.506;2022-07-09T08:44:33;17.80;99.90
34873;DHT22;21084;51.098;14.506;2022-07-09T08:46:36;17.50;99.90
34873;DHT22;21084;51.098;14.506;2022-07-09T08:48:43;17.70;99.90
34873;DHT22;21084;51.098;14.506;2022-07-09T08:50:46;17.60;99.90
34873;DHT22;21084;51.098;14.506;2022-07-09T08:52:49;18.00;99.90
34873;DHT22;21084;51.098;14.506;2022-07-09T08:54:53;18.10;99.90
34873;DHT22;21084;51.098;14.506;2022-07-09T08:57:05;18.20;99.90
34873;DHT22;21084;51.098;14.506;2022-07-09T08:59:07;18.70;99.90
34873;DHT22;21084;51.098;14.506;2022-07-09T09:01:14;18.50;99.90
34873;DHT22;21084;51.098;14.506;2022-07-09T09:03:17;18.60;99.90
34873;DHT22;21084;51.098;14.506;2022-07-09T09:05:19;18.70;99.90
34873;DHT22;21084;51.098;14.506;2022-07-09T09:07:21;18.90;99.90
34873;DHT22;21084;51.098;14.506;2022-07-09T09:09:22;18.50;99.90
34873;DHT22;21084;51.098;14.506;2022-07-09T09:11:25;18.00;99.90
34873;DHT22;21084;51.098;14.506;2022-07-09T09:13:29;19.10;99.90
34873;DHT22;21084;51.098;14.506;2022-07-09T09:15:31;19.30;99.90
34873;DHT22;21084;51.098;14.506;2022-07-09T09:17:32;19.60;99.90
34873;DHT22;21084;51.098;14.506;2022-07-09T09:19:34;19.60;99.90
34873;DHT22;21084;51.098;14.506;2022-07-09T09:21:37;19.40;99.90
34873;DHT22;21084;51.098;14.506;2022-07-09T09:23:40;19.40;99.90
34873;DHT22;21084;51.098;14.506;2022-07-09T09:25:42;19.90;99.90
34873;DHT22;21084;51.098;14.506;2022-07-09T09:27:51;20.40;99.90
34873;DHT22;21084;51.098;14.506;2022-07-09T09:29:57;19.70;99.90
34873;DHT22;21084;51.098;14.506;2022-07-09T09:32:09;19.80;99.90
34873;DHT22;21084;51.098;14.506;2022-07-09T09:34:13;19.30;99.90
34873;DHT22;21084;51.098;14.506;2022-07-09T09:36:27;18.90;99.90
34873;DHT22;21084;51.098;14.506;2022-07-09T09:38:29;18.90;99.90
34873;DHT22;21084;51.098;14.506;2022-07-09T09:40:31;18.50;99.90
34873;DHT22;21084;51.098;14.506;2022-07-09T09:42:33;18.10;99.90
34873;DHT22;21084;51.098;14.506;2022-07-09T09:44:37;17.60;99.90
34873;DHT22;21084;51.098;14.506;2022-07-09T09:46:42;17.60;99.90
34873;DHT22;21084;51.098;14.506;2022-07-09T09:48:45;17.70;99.90
34873;DHT22;21084;51.098;14.506;2022-07-09T09:50:48;17.80;99.90
34873;DHT22;21084;51.098;14.506;2022-07-09T09:52:53;17.70;99.90
34873;DHT22;21084;51.098;14.506;2022-07-09T09:54:56;17.90;99.90
34873;DHT22;21084;51.098;14.506;2022-07-09T09:56:59;17.90;99.90
34873;DHT22;21084;51.098;14.506;2022-07-09T09:59:01;18.40;99.90
34873;DHT22;21084;51.098;14.506;2022-07-09T10:01:03;18.50;99.90
34873;DHT22;21084;51.098;14.506;2022-07-09T10:03:07;18.70;99.90
34873;DHT22;21084;51.098;14.506;2022-07-09T10:05:12;18.40;99.90
34873;DHT22;21084;51.098;14.506;2022-07-09T10:07:15;18.10;99.90
34873;DHT22;21084;51.098;14.506;2022-07-09T10:09:17;18.20;99.90
34873;DHT22;21084;51.098;14.506;2022-07-09T10:11:19;18.40;99.90
34873;DHT22;21084;51.098;14.506;2022-07-09T10:13:20;18.30;99.90
34873;DHT22;21084;51.098;14.506;2022-07-09T10:15:24;18.70;99.90
34873;DHT22;21084;51.098;14.506;2022-07-09T10:17:27;18.70;99.90
34873;DHT22;21084;51.098;14.506;2022-07-09T10:19:31;18.70;99.90
34873;DHT22;21084;51.098;14.506;2022-07-09T10:21:34;19.00;99.90
34873;DHT22;21084;51.098;14.506;2022-07-09T10:23:48;18.60;99.90
34873;DHT22;21084;51.098;14.506;2022-07-09T10:25:51;18.40;99.90
34873;DHT22;21084;51.098;14.506;2022-07-09T10:27:53;17.90;99.90
34873;DHT22;21084;51.098;14.506;2022-07-09T10:29:56;17.80;99.90
34873;DHT22;21084;51.098;14.506;2022-07-09T10:31:58;17.80;99.90
34873;DHT22;21084;51.098;14.506;2022-07-09T10:34:06;18.10;99.90
34873;DHT22;21084;51.098;14.506;2022-07-09T10:36:14;18.30;99.90
34873;DHT22;21084;51.098;14.506;2022-07-09T10:38:17;18.40;99.90
34873;DHT22;21084;51.098;14.506;2022-07-09T10:40:20;18.20;99.90
34873;DHT22;21084;51.098;14.506;2022-07-09T10:42:23;18.20;99.90
34873;DHT22;21084;51.098;14.506;2022-07-09T10:44:26;18.40;99.90
34873;DHT22;21084;51.098;14.506;2022-07-09T10:46:28;18.50;99.90
34873;DHT22;21084;51.098;14.506;2022-07-09T10:48:31;18.50;99.90
34873;DHT22;21084;51.098;14.506;2022-07-09T10:50:37;18.40;99.90
34873;DHT22;21084;51.098;14.506;2022-07-09T10:52:41;18.30;99.90
34873;DHT22;21084;51.098;14.506;2022-07-09T10:54:48;18.00;99.90
34873;DHT22;21084;51.098;14.506;2022-07-09T10:56:50;18.00;99.90
34873;DHT22;21084;51.098;14.506;2022-07-09T10:58:52;18.10;99.90
34873;DHT22;21084;51.098;14.506;2022-07-09T11:00:54;18.40;99.90
34873;DHT22;21084;51.098;14.506;2022-07-09T11:02:58;19.00;99.90
34873;DHT22;21084;51.098;14.506;2022-07-09T11:05:00;19.10;99.90
34873;DHT22;21084;51.098;14.506;2022-07-09T11:07:02;19.10;99.90
34873;DHT22;21084;51.098;14.506;2022-07-09T11:09:12;19.30;99.90
34873;DHT22;21084;51.098;14.506;2022-07-09T11:11:20;19.20;99.90
34873;DHT22;21084;51.098;14.506;2022-07-09T11:13:23;19.40;99.90
34873;DHT22;21084;51.098;14.506;2022-07-09T11:15:26;19.10;99.90
34873;DHT22;21084;51.098;14.506;2022-07-09T11:17:28;19.10;99.90
34873;DHT22;21084;51.098;14.506;2022-07-09T11:19:30;18.90;99.90
34873;DHT22;21084;51.098;14.506;2022-07-09T11:21:32;19.00;99.90
34873;DHT22;21084;51.098;14.506;2022-07-09T11:23:36;18.70;99.90
34873;DHT22;21084;51.098;14.506;2022-07-09T11:25:39;18.90;99.90
34873;DHT22;21084;51.098;14.506;2022-07-09T11:27:41;18.80;99.90
34873;DHT22;21084;51.098;14.506;2022-07-09T11:29:46;18.40;99.90
34873;DHT22;21084;51.098;14.506;2022-07-09T11:31:49;18.50;99.90
34873;DHT22;21084;51.098;14.506;2022-07-09T11:33:52;18.70;99.90
34873;DHT22;21084;51.098;14.506;2022-07-09T11:35:53;18.40;99.90
34873;DHT22;21084;51.098;14.506;2022-07-09T11:37:56;18.30;99.90
34873;DHT22;21084;51.098;14.506;2022-07-09T11:39:58;18.30;99.90
34873;DHT22;21084;51.098;14.506;2022-07-09T11:42:02;18.40;99.90
34873;DHT22;21084;51.098;14.506;2022-07-09T11:44:04;18.30;99.90
34873;DHT22;21084;51.098;14.506;2022-07-09T11:46:06;18.10;99.90
34873;DHT22;21084;51.098;14.506;2022-07-09T11:48:09;18.00;99.90
34873;DHT22;21084;51.098;14.506;2022-07-09T11:50:12;18.20;99.90
34873;DHT22;21084;51.098;14.506;2022-07-09T11:52:18;18.40;99.90
34873;DHT22;21084;51.098;14.506;2022-07-09T11:54:26;18.60;99.90
34873;DHT22;21084;51.098;14.506;2022-07-09T11:56:38;19.00;99.90
34873;DHT22;21084;51.098;14.506;2022-07-09T11:58:50;18.70;99.90
34873;DHT22;21084;51.098;14.506;2022-07-09T12:00:52;18.90;99.90
34873;DHT22;21084;51.098;14.506;2022-07-09T12:02:54;19.10;99.90
34873;DHT22;21084;51.098;14.506;2022-07-09T12:04:57;19.00;99.90
34873;DHT22;21084;51.098;14.506;2022-07-09T12:06:59;19.00;99.90
34873;DHT22;21084;51.098;14.506;2022-07-09T12:09:01;19.30;99.90
34873;DHT22;21084;51.098;14.506;2022-07-09T12:11:03;19.60;99.90
34873;DHT22;21084;51.098;14.506;2022-07-09T12:13:06;19.20;99.90
34873;DHT22;21084;51.098;14.506;2022-07-09T12:15:10;19.60;99.90
34873;DHT22;21084;51.098;14.506;2022-07-09T12:17:18;19.90;99.90
34873;DHT22;21084;51.098;14.506;2022-07-09T12:19:20;20.20;99.90
34873;DHT22;21084;51.098;14.506;2022-07-09T12:21:22;20.30;99.90
34873;DHT22;21084;51.098;14.506;2022-07-09T12:23:23;20.10;99.90
34873;DHT22;21084;51.098;14.506;2022-07-09T12:25:25;20.10;99.90
34873;DHT22;21084;51.098;14.506;2022-07-09T12:27:27;20.10;99.90
34873;DHT22;21084;51.098;14.506;2022-07-09T12:29:29;20.00;99.90
34873;DHT22;21084;51.098;14.506;2022-07-09T12:31:32;19.60;99.90
34873;DHT22;21084;51.098;14.506;2022-07-09T12:33:34;19.20;99.90
34873;DHT22;21084;51.098;14.506;2022-07-09T12:35:36;19.20;99.90
34873;DHT22;21084;51.098;14.506;2022-07-09T12:37:39;19.40;99.90
34873;DHT22;21084;51.098;14.506;2022-07-09T12:39:41;19.50;99.90
34873;DHT22;21084;51.098;14.506;2022-07-09T12:41:49;19.60;99.90